sensor_id;sensor_type;location;lat;lon;timestamp;P1;durP1;ratioP1;P2;durP2;ratioP2
76115;SDS011;64847;45.778;12.802;2024-02-28T00:01:02;1.40;;;1.30;;
76115;SDS011;64847;45.778;12.802;2024-02-28T00:03:27;1.43;;;1.33;;
76115;SDS011;64847;45.778;12.802;2024-02-28T00:05:53;1.10;;;1.10;;
76115;SDS011;64847;45.778;12.802;2024-02-28T00:08:18;1.00;;;1.00;;
76115;SDS011;64847;45.778;12.802;2024-02-28T00:10:45;1.07;;;1.07;;
76115;SDS011;64847;45.778;12.802;2024-02-28T00:13:10;1.40;;;1.33;;
76115;SDS011;64847;45.778;12.802;2024-02-28T00:15:36;1.47;;;1.37;;
76115;SDS011;64847;45.778;12.802;2024-02-28T00:18:01;1.50;;;1.40;;
76115;SDS011;64847;45.778;12.802;2024-02-28T00:20:28;1.40;;;1.30;;
76115;SDS011;64847;45.778;12.802;2024-02-28T00:22:54;1.20;;;1.20;;
76115;SDS011;64847;45.778;12.802;2024-02-28T00:25:20;1.60;;;1.50;;
76115;SDS011;64847;45.778;12.802;2024-02-28T00:27:45;1.20;;;1.20;;
76115;SDS011;64847;45.778;12.802;2024-02-28T00:30:11;1.40;;;1.30;;
76115;SDS011;64847;45.778;12.802;2024-02-28T00:32:36;1.30;;;1.20;;
76115;SDS011;64847;45.778;12.802;2024-02-28T00:35:02;1.10;;;1.10;;
76115;SDS011;64847;45.778;12.802;2024-02-28T00:37:29;1.00;;;1.00;;
76115;SDS011;64847;45.778;12.802;2024-02-28T00:39:54;2.37;;;1.20;;
76115;SDS011;64847;45.778;12.802;2024-02-28T00:42:19;1.33;;;1.23;;
76115;SDS011;64847;45.778;12.802;2024-02-28T00:44:45;1.10;;;1.10;;
76115;SDS011;64847;45.778;12.802;2024-02-28T00:47:10;1.07;;;1.07;;
76115;SDS011;64847;45.778;12.802;2024-02-28T00:49:36;1.50;;;1.40;;
76115;SDS011;64847;45.778;12.802;2024-02-28T00:52:02;1.40;;;1.30;;
76115;SDS011;64847;45.778;12.802;2024-02-28T00:54:28;1.27;;;1.27;;
76115;SDS011;64847;45.778;12.802;2024-02-28T00:56:53;1.07;;;1.07;;
76115;SDS011;64847;45.778;12.802;2024-02-28T00:59:18;1.63;;;1.10;;
76115;SDS011;64847;45.778;12.802;2024-02-28T01:01:44;1.20;;;1.20;;
76115;SDS011;64847;45.778;12.802;2024-02-28T01:04:09;1.40;;;1.30;;
76115;SDS011;64847;45.778;12.802;2024-02-28T01:06:35;1.23;;;1.17;;
76115;SDS011;64847;45.778;12.802;2024-02-28T01:09:00;1.07;;;1.07;;
76115;SDS011;64847;45.778;12.802;2024-02-28T01:11:25;1.10;;;1.00;;
76115;SDS011;64847;45.778;12.802;2024-02-28T01:13:51;1.20;;;1.20;;
76115;SDS011;64847;45.778;12.802;2024-02-28T01:16:16;1.33;;;1.23;;
76115;SDS011;64847;45.778;12.802;2024-02-28T01:18:42;1.30;;;1.20;;
76115;SDS011;64847;45.778;12.802;2024-02-28T01:21:07;1.40;;;1.30;;
76115;SDS011;64847;45.778;12.802;2024-02-28T01:23:33;1.07;;;1.07;;
76115;SDS011;64847;45.778;12.802;2024-02-28T01:25:58;1.10;;;1.10;;
76115;SDS011;64847;45.778;12.802;2024-02-28T01:28:24;1.10;;;1.10;;
76115;SDS011;64847;45.778;12.802;2024-02-28T01:30:49;1.20;;;1.20;;
76115;SDS011;64847;45.778;12.802;2024-02-28T01:33:14;1.33;;;1.23;;
76115;SDS011;64847;45.778;12.802;2024-02-28T01:35:40;1.47;;;1.37;;
76115;SDS011;64847;45.778;12.802;2024-02-28T01:38:05;1.37;;;1.30;;
76115;SDS011;64847;45.778;12.802;2024-02-28T01:40:31;1.27;;;1.27;;
76115;SDS011;64847;45.778;12.802;2024-02-28T01:43:03;1.50;;;1.40;;
76115;SDS011;64847;45.778;12.802;2024-02-28T01:45:29;1.20;;;1.20;;
76115;SDS011;64847;45.778;12.802;2024-02-28T01:47:55;1.57;;;1.47;;
76115;SDS011;64847;45.778;12.802;2024-02-28T01:50:20;1.67;;;1.57;;
76115;SDS011;64847;45.778;12.802;2024-02-28T01:52:46;1.50;;;1.40;;
76115;SDS011;64847;45.778;12.802;2024-02-28T01:55:11;1.10;;;1.10;;
76115;SDS011;64847;45.778;12.802;2024-02-28T01:57:37;1.23;;;1.20;;
76115;SDS011;64847;45.778;12.802;2024-02-28T02:00:03;0.90;;;0.90;;
76115;SDS011;64847;45.778;12.802;2024-02-28T02:02:29;1.00;;;1.00;;
76115;SDS011;64847;45.778;12.802;2024-02-28T02:04:54;1.10;;;1.10;;
76115;SDS011;64847;45.778;12.802;2024-02-28T02:07:22;1.17;;;1.17;;
76115;SDS011;64847;45.778;12.802;2024-02-28T02:09:48;1.20;;;1.20;;
76115;SDS011;64847;45.778;12.802;2024-02-28T02:12:15;1.43;;;1.10;;
76115;SDS011;64847;45.778;12.802;2024-02-28T02:14:41;0.87;;;0.87;;
76115;SDS011;64847;45.778;12.802;2024-02-28T02:17:06;1.27;;;1.00;;
76115;SDS011;64847;45.778;12.802;2024-02-28T02:19:32;1.00;;;1.00;;
76115;SDS011;64847;45.778;12.802;2024-02-28T02:21:58;0.87;;;0.87;;
76115;SDS011;64847;45.778;12.802;2024-02-28T02:24:24;1.07;;;1.07;;
76115;SDS011;64847;45.778;12.802;2024-02-28T02:26:54;0.60;;;0.60;;
76115;SDS011;64847;45.778;12.802;2024-02-28T02:29:20;0.90;;;0.90;;
76115;SDS011;64847;45.778;12.802;2024-02-28T02:31:46;1.03;;;1.00;;
76115;SDS011;64847;45.778;12.802;2024-02-28T02:34:11;0.87;;;0.87;;
76115;SDS011;64847;45.778;12.802;2024-02-28T02:36:36;0.67;;;0.67;;
76115;SDS011;64847;45.778;12.802;2024-02-28T02:39:02;0.93;;;0.90;;
76115;SDS011;64847;45.778;12.802;2024-02-28T02:41:27;1.00;;;0.90;;
76115;SDS011;64847;45.778;12.802;2024-02-28T02:43:53;0.80;;;0.80;;
76115;SDS011;64847;45.778;12.802;2024-02-28T02:46:18;0.90;;;0.90;;
76115;SDS011;64847;45.778;12.802;2024-02-28T02:48:44;0.93;;;0.93;;
76115;SDS011;64847;45.778;12.802;2024-02-28T02:51:09;0.80;;;0.80;;
76115;SDS011;64847;45.778;12.802;2024-02-28T02:53:34;0.90;;;0.90;;
76115;SDS011;64847;45.778;12.802;2024-02-28T02:56:00;0.73;;;0.73;;
76115;SDS011;64847;45.778;12.802;2024-02-28T02:58:28;0.90;;;0.90;;
76115;SDS011;64847;45.778;12.802;2024-02-28T03:00:54;0.80;;;0.80;;
76115;SDS011;64847;45.778;12.802;2024-02-28T03:03:19;0.80;;;0.80;;
76115;SDS011;64847;45.778;12.802;2024-02-28T03:05:45;0.90;;;0.90;;
76115;SDS011;64847;45.778;12.802;2024-02-28T03:08:10;1.20;;;1.10;;
76115;SDS011;64847;45.778;12.802;2024-02-28T03:10:36;1.10;;;1.10;;
76115;SDS011;64847;45.778;12.802;2024-02-28T03:13:01;1.30;;;1.20;;
76115;SDS011;64847;45.778;12.802;2024-02-28T03:15:27;1.10;;;1.10;;
76115;SDS011;64847;45.778;12.802;2024-02-28T03:17:52;1.83;;;1.30;;
76115;SDS011;64847;45.778;12.802;2024-02-28T03:20:18;1.27;;;1.27;;
76115;SDS011;64847;45.778;12.802;2024-02-28T03:22:43;1.23;;;1.23;;
76115;SDS011;64847;45.778;12.802;2024-02-28T03:25:09;1.60;;;1.50;;
76115;SDS011;64847;45.778;12.802;2024-02-28T03:27:34;1.77;;;1.67;;
76115;SDS011;64847;45.778;12.802;2024-02-28T03:30:00;1.60;;;1.60;;
76115;SDS011;64847;45.778;12.802;2024-02-28T03:32:26;1.97;;;1.87;;
76115;SDS011;64847;45.778;12.802;2024-02-28T03:34:52;1.83;;;1.73;;
76115;SDS011;64847;45.778;12.802;2024-02-28T03:37:17;1.97;;;1.87;;
76115;SDS011;64847;45.778;12.802;2024-02-28T03:39:43;2.00;;;1.90;;
76115;SDS011;64847;45.778;12.802;2024-02-28T03:42:08;1.73;;;1.63;;
76115;SDS011;64847;45.778;12.802;2024-02-28T03:44:34;2.23;;;2.13;;
76115;SDS011;64847;45.778;12.802;2024-02-28T03:46:59;2.10;;;2.00;;
76115;SDS011;64847;45.778;12.802;2024-02-28T03:49:24;2.17;;;2.07;;
76115;SDS011;64847;45.778;12.802;2024-02-28T03:51:50;2.60;;;2.40;;
76115;SDS011;64847;45.778;12.802;2024-02-28T03:54:15;2.20;;;2.10;;
76115;SDS011;64847;45.778;12.802;2024-02-28T03:56:41;2.20;;;2.10;;
76115;SDS011;64847;45.778;12.802;2024-02-28T03:59:06;2.70;;;2.27;;
76115;SDS011;64847;45.778;12.802;2024-02-28T04:01:32;1.90;;;1.80;;
76115;SDS011;64847;45.778;12.802;2024-02-28T04:03:57;1.80;;;1.73;;
76115;SDS011;64847;45.778;12.802;2024-02-28T04:06:23;2.10;;;2.00;;
76115;SDS011;64847;45.778;12.802;2024-02-28T04:08:48;1.80;;;1.70;;
76115;SDS011;64847;45.778;12.802;2024-02-28T04:11:14;2.23;;;2.00;;
76115;SDS011;64847;45.778;12.802;2024-02-28T04:13:39;2.17;;;2.07;;
76115;SDS011;64847;45.778;12.802;2024-02-28T04:16:05;2.10;;;2.00;;
76115;SDS011;64847;45.778;12.802;2024-02-28T04:18:31;2.50;;;1.80;;
76115;SDS011;64847;45.778;12.802;2024-02-28T04:20:58;4.23;;;1.90;;
76115;SDS011;64847;45.778;12.802;2024-02-28T04:23:24;1.80;;;1.70;;
76115;SDS011;64847;45.778;12.802;2024-02-28T04:25:49;2.30;;;2.00;;
76115;SDS011;64847;45.778;12.802;2024-02-28T04:28:15;2.43;;;2.17;;
76115;SDS011;64847;45.778;12.802;2024-02-28T04:30:40;2.20;;;2.10;;
76115;SDS011;64847;45.778;12.802;2024-02-28T04:33:05;2.93;;;2.73;;
76115;SDS011;64847;45.778;12.802;2024-02-28T04:35:31;3.10;;;2.90;;
76115;SDS011;64847;45.778;12.802;2024-02-28T04:37:56;2.50;;;2.30;;
76115;SDS011;64847;45.778;12.802;2024-02-28T04:40:22;2.23;;;2.13;;
76115;SDS011;64847;45.778;12.802;2024-02-28T04:42:47;1.97;;;1.87;;
76115;SDS011;64847;45.778;12.802;2024-02-28T04:45:13;2.27;;;2.17;;
76115;SDS011;64847;45.778;12.802;2024-02-28T04:47:38;2.10;;;2.00;;
76115;SDS011;64847;45.778;12.802;2024-02-28T04:50:04;1.90;;;1.80;;
76115;SDS011;64847;45.778;12.802;2024-02-28T04:52:31;2.00;;;1.90;;
76115;SDS011;64847;45.778;12.802;2024-02-28T04:54:56;2.30;;;2.20;;
76115;SDS011;64847;45.778;12.802;2024-02-28T04:57:22;2.37;;;2.20;;
76115;SDS011;64847;45.778;12.802;2024-02-28T04:59:47;2.33;;;2.00;;
76115;SDS011;64847;45.778;12.802;2024-02-28T05:02:13;2.67;;;1.80;;
76115;SDS011;64847;45.778;12.802;2024-02-28T05:04:38;1.73;;;1.63;;
76115;SDS011;64847;45.778;12.802;2024-02-28T05:07:04;1.77;;;1.67;;
76115;SDS011;64847;45.778;12.802;2024-02-28T05:09:29;1.90;;;1.80;;
76115;SDS011;64847;45.778;12.802;2024-02-28T05:11:55;1.80;;;1.70;;
76115;SDS011;64847;45.778;12.802;2024-02-28T05:14:20;1.87;;;1.73;;
76115;SDS011;64847;45.778;12.802;2024-02-28T05:16:48;1.67;;;1.57;;
76115;SDS011;64847;45.778;12.802;2024-02-28T05:19:14;2.07;;;1.87;;
76115;SDS011;64847;45.778;12.802;2024-02-28T05:21:42;3.13;;;2.20;;
76115;SDS011;64847;45.778;12.802;2024-02-28T05:24:08;2.43;;;1.87;;
76115;SDS011;64847;45.778;12.802;2024-02-28T05:26:37;1.80;;;1.70;;
76115;SDS011;64847;45.778;12.802;2024-02-28T05:29:03;2.00;;;1.80;;
76115;SDS011;64847;45.778;12.802;2024-02-28T05:31:30;1.80;;;1.70;;
76115;SDS011;64847;45.778;12.802;2024-02-28T05:33:57;1.93;;;1.70;;
76115;SDS011;64847;45.778;12.802;2024-02-28T05:36:23;2.30;;;1.80;;
76115;SDS011;64847;45.778;12.802;2024-02-28T05:38:51;2.00;;;1.90;;
76115;SDS011;64847;45.778;12.802;2024-02-28T05:41:17;2.23;;;1.80;;
76115;SDS011;64847;45.778;12.802;2024-02-28T05:43:43;1.90;;;1.80;;
76115;SDS011;64847;45.778;12.802;2024-02-28T05:46:08;1.70;;;1.60;;
76115;SDS011;64847;45.778;12.802;2024-02-28T05:48:34;2.50;;;2.40;;
76115;SDS011;64847;45.778;12.802;2024-02-28T05:51:02;2.23;;;2.13;;
76115;SDS011;64847;45.778;12.802;2024-02-28T05:53:28;2.30;;;2.20;;
76115;SDS011;64847;45.778;12.802;2024-02-28T05:55:57;2.40;;;2.30;;
76115;SDS011;64847;45.778;12.802;2024-02-28T05:58:23;2.10;;;2.00;;
76115;SDS011;64847;45.778;12.802;2024-02-28T06:00:50;2.20;;;2.00;;
76115;SDS011;64847;45.778;12.802;2024-02-28T06:03:16;1.93;;;1.83;;
76115;SDS011;64847;45.778;12.802;2024-02-28T06:05:41;2.10;;;1.90;;
76115;SDS011;64847;45.778;12.802;2024-02-28T06:08:06;2.17;;;1.80;;
76115;SDS011;64847;45.778;12.802;2024-02-28T06:10:32;2.10;;;2.00;;
76115;SDS011;64847;45.778;12.802;2024-02-28T06:12:57;2.43;;;2.30;;
76115;SDS011;64847;45.778;12.802;2024-02-28T06:15:23;2.17;;;2.07;;
76115;SDS011;64847;45.778;12.802;2024-02-28T06:17:48;2.60;;;2.40;;
76115;SDS011;64847;45.778;12.802;2024-02-28T06:20:13;2.50;;;2.30;;
76115;SDS011;64847;45.778;12.802;2024-02-28T06:22:39;2.00;;;1.90;;
76115;SDS011;64847;45.778;12.802;2024-02-28T06:25:05;2.03;;;1.90;;
76115;SDS011;64847;45.778;12.802;2024-02-28T06:27:36;2.23;;;1.73;;
76115;SDS011;64847;45.778;12.802;2024-02-28T06:30:01;2.30;;;1.57;;
76115;SDS011;64847;45.778;12.802;2024-02-28T06:32:28;1.37;;;1.37;;
76115;SDS011;64847;45.778;12.802;2024-02-28T06:34:54;1.60;;;1.50;;
76115;SDS011;64847;45.778;12.802;2024-02-28T06:37:19;1.47;;;1.37;;
76115;SDS011;64847;45.778;12.802;2024-02-28T06:39:44;2.83;;;1.40;;
76115;SDS011;64847;45.778;12.802;2024-02-28T06:42:10;1.40;;;1.40;;
76115;SDS011;64847;45.778;12.802;2024-02-28T06:44:35;1.43;;;1.33;;
76115;SDS011;64847;45.778;12.802;2024-02-28T06:47:00;1.37;;;1.33;;
76115;SDS011;64847;45.778;12.802;2024-02-28T06:49:26;1.93;;;1.77;;
76115;SDS011;64847;45.778;12.802;2024-02-28T06:51:51;1.50;;;1.40;;
76115;SDS011;64847;45.778;12.802;2024-02-28T06:54:18;1.80;;;1.33;;
76115;SDS011;64847;45.778;12.802;2024-02-28T06:56:43;1.30;;;1.20;;
76115;SDS011;64847;45.778;12.802;2024-02-28T06:59:10;1.40;;;1.40;;
76115;SDS011;64847;45.778;12.802;2024-02-28T07:01:35;1.40;;;1.30;;
76115;SDS011;64847;45.778;12.802;2024-02-28T07:04:00;2.23;;;1.20;;
76115;SDS011;64847;45.778;12.802;2024-02-28T07:06:26;1.10;;;1.10;;
76115;SDS011;64847;45.778;12.802;2024-02-28T07:08:51;1.30;;;1.30;;
76115;SDS011;64847;45.778;12.802;2024-02-28T07:11:17;1.40;;;1.30;;
76115;SDS011;64847;45.778;12.802;2024-02-28T07:13:42;1.50;;;1.30;;
76115;SDS011;64847;45.778;12.802;2024-02-28T07:16:07;1.40;;;1.30;;
76115;SDS011;64847;45.778;12.802;2024-02-28T07:18:33;1.50;;;1.40;;
76115;SDS011;64847;45.778;12.802;2024-02-28T07:20:59;2.20;;;1.60;;
76115;SDS011;64847;45.778;12.802;2024-02-28T07:23:24;1.23;;;1.23;;
76115;SDS011;64847;45.778;12.802;2024-02-28T07:25:50;1.63;;;1.53;;
76115;SDS011;64847;45.778;12.802;2024-02-28T07:28:15;1.70;;;1.57;;
76115;SDS011;64847;45.778;12.802;2024-02-28T07:30:41;1.70;;;1.60;;
76115;SDS011;64847;45.778;12.802;2024-02-28T07:33:07;1.47;;;1.37;;
76115;SDS011;64847;45.778;12.802;2024-02-28T07:35:43;1.23;;;1.23;;
76115;SDS011;64847;45.778;12.802;2024-02-28T07:38:09;1.40;;;1.33;;
76115;SDS011;64847;45.778;12.802;2024-02-28T07:40:34;1.10;;;1.10;;
76115;SDS011;64847;45.778;12.802;2024-02-28T07:43:00;1.40;;;1.30;;
76115;SDS011;64847;45.778;12.802;2024-02-28T07:45:25;1.53;;;1.43;;
76115;SDS011;64847;45.778;12.802;2024-02-28T07:47:51;2.13;;;1.30;;
76115;SDS011;64847;45.778;12.802;2024-02-28T07:50:16;1.60;;;1.50;;
76115;SDS011;64847;45.778;12.802;2024-02-28T07:52:42;1.50;;;1.40;;
76115;SDS011;64847;45.778;12.802;2024-02-28T07:55:07;1.30;;;1.30;;
76115;SDS011;64847;45.778;12.802;2024-02-28T07:57:33;1.27;;;1.17;;
76115;SDS011;64847;45.778;12.802;2024-02-28T07:59:58;1.20;;;1.20;;
76115;SDS011;64847;45.778;12.802;2024-02-28T08:02:24;1.40;;;1.30;;
76115;SDS011;64847;45.778;12.802;2024-02-28T08:04:50;1.03;;;1.03;;
76115;SDS011;64847;45.778;12.802;2024-02-28T08:07:16;1.37;;;1.27;;
76115;SDS011;64847;45.778;12.802;2024-02-28T08:09:41;1.37;;;1.33;;
76115;SDS011;64847;45.778;12.802;2024-02-28T08:12:07;1.10;;;1.10;;
76115;SDS011;64847;45.778;12.802;2024-02-28T08:14:32;1.30;;;1.30;;
76115;SDS011;64847;45.778;12.802;2024-02-28T08:16:58;1.27;;;1.27;;
76115;SDS011;64847;45.778;12.802;2024-02-28T08:19:24;1.13;;;1.13;;
76115;SDS011;64847;45.778;12.802;2024-02-28T08:21:51;1.33;;;1.23;;
76115;SDS011;64847;45.778;12.802;2024-02-28T08:24:17;2.10;;;1.20;;
76115;SDS011;64847;45.778;12.802;2024-02-28T08:29:12;1.70;;;1.60;;
76115;SDS011;64847;45.778;12.802;2024-02-28T08:31:43;1.57;;;1.20;;
76115;SDS011;64847;45.778;12.802;2024-02-28T08:34:11;1.53;;;1.43;;
76115;SDS011;64847;45.778;12.802;2024-02-28T08:36:47;1.53;;;1.40;;
76115;SDS011;64847;45.778;12.802;2024-02-28T08:39:12;1.40;;;1.30;;
76115;SDS011;64847;45.778;12.802;2024-02-28T08:41:38;1.90;;;1.27;;
76115;SDS011;64847;45.778;12.802;2024-02-28T08:44:03;0.90;;;0.90;;
76115;SDS011;64847;45.778;12.802;2024-02-28T08:46:29;1.20;;;1.20;;
76115;SDS011;64847;45.778;12.802;2024-02-28T08:48:54;1.33;;;1.27;;
76115;SDS011;64847;45.778;12.802;2024-02-28T08:51:20;1.20;;;1.20;;
76115;SDS011;64847;45.778;12.802;2024-02-28T08:53:45;1.30;;;1.20;;
76115;SDS011;64847;45.778;12.802;2024-02-28T08:56:11;1.00;;;1.00;;
76115;SDS011;64847;45.778;12.802;2024-02-28T08:58:37;1.20;;;1.10;;
76115;SDS011;64847;45.778;12.802;2024-02-28T09:01:02;1.37;;;1.27;;
76115;SDS011;64847;45.778;12.802;2024-02-28T09:03:29;1.37;;;1.20;;
76115;SDS011;64847;45.778;12.802;2024-02-28T09:05:54;1.07;;;1.07;;
76115;SDS011;64847;45.778;12.802;2024-02-28T09:08:20;1.50;;;1.40;;
76115;SDS011;64847;45.778;12.802;2024-02-28T09:10:45;1.27;;;1.20;;
76115;SDS011;64847;45.778;12.802;2024-02-28T09:13:12;1.37;;;1.27;;
76115;SDS011;64847;45.778;12.802;2024-02-28T09:15:37;1.40;;;1.40;;
76115;SDS011;64847;45.778;12.802;2024-02-28T09:18:03;1.83;;;1.53;;
76115;SDS011;64847;45.778;12.802;2024-02-28T09:20:29;2.20;;;1.40;;
76115;SDS011;64847;45.778;12.802;2024-02-28T09:22:54;1.43;;;1.33;;
76115;SDS011;64847;45.778;12.802;2024-02-28T09:25:20;1.40;;;1.30;;
76115;SDS011;64847;45.778;12.802;2024-02-28T09:27:46;2.00;;;1.40;;
76115;SDS011;64847;45.778;12.802;2024-02-28T09:30:14;1.37;;;1.30;;
76115;SDS011;64847;45.778;12.802;2024-02-28T09:32:39;3.00;;;1.47;;
76115;SDS011;64847;45.778;12.802;2024-02-28T09:35:05;1.13;;;1.13;;
76115;SDS011;64847;45.778;12.802;2024-02-28T09:37:32;1.40;;;1.30;;
76115;SDS011;64847;45.778;12.802;2024-02-28T09:39:59;2.40;;;1.23;;
76115;SDS011;64847;45.778;12.802;2024-02-28T09:42:26;1.50;;;1.40;;
76115;SDS011;64847;45.778;12.802;2024-02-28T09:44:51;1.83;;;1.30;;
76115;SDS011;64847;45.778;12.802;2024-02-28T09:47:17;1.40;;;1.30;;
76115;SDS011;64847;45.778;12.802;2024-02-28T09:49:42;2.57;;;1.40;;
76115;SDS011;64847;45.778;12.802;2024-02-28T09:52:08;1.40;;;1.30;;
76115;SDS011;64847;45.778;12.802;2024-02-28T09:54:34;2.23;;;1.50;;
76115;SDS011;64847;45.778;12.802;2024-02-28T09:57:00;1.27;;;1.17;;
76115;SDS011;64847;45.778;12.802;2024-02-28T09:59:26;1.50;;;1.40;;
76115;SDS011;64847;45.778;12.802;2024-02-28T10:01:58;1.97;;;1.37;;
76115;SDS011;64847;45.778;12.802;2024-02-28T10:04:25;1.30;;;1.20;;
76115;SDS011;64847;45.778;12.802;2024-02-28T10:06:52;1.30;;;1.20;;
76115;SDS011;64847;45.778;12.802;2024-02-28T10:09:18;3.17;;;1.40;;
76115;SDS011;64847;45.778;12.802;2024-02-28T10:11:43;1.70;;;1.37;;
76115;SDS011;64847;45.778;12.802;2024-02-28T10:14:09;1.50;;;1.40;;
76115;SDS011;64847;45.778;12.802;2024-02-28T10:16:35;2.10;;;1.20;;
76115;SDS011;64847;45.778;12.802;2024-02-28T10:19:01;1.33;;;1.30;;
76115;SDS011;64847;45.778;12.802;2024-02-28T10:21:30;0.90;;;0.90;;
76115;SDS011;64847;45.778;12.802;2024-02-28T10:23:58;1.13;;;1.10;;
76115;SDS011;64847;45.778;12.802;2024-02-28T10:26:23;1.30;;;1.20;;
76115;SDS011;64847;45.778;12.802;2024-02-28T10:28:51;1.20;;;1.10;;
76115;SDS011;64847;45.778;12.802;2024-02-28T10:31:17;3.00;;;1.27;;
76115;SDS011;64847;45.778;12.802;2024-02-28T10:33:42;1.20;;;1.20;;
76115;SDS011;64847;45.778;12.802;2024-02-28T10:36:08;1.20;;;1.20;;
76115;SDS011;64847;45.778;12.802;2024-02-28T10:38:34;1.80;;;1.30;;
76115;SDS011;64847;45.778;12.802;2024-02-28T10:41:04;1.57;;;1.20;;
76115;SDS011;64847;45.778;12.802;2024-02-28T10:43:29;1.10;;;1.10;;
76115;SDS011;64847;45.778;12.802;2024-02-28T10:45:58;1.43;;;1.23;;
76115;SDS011;64847;45.778;12.802;2024-02-28T10:48:24;1.30;;;1.20;;
76115;SDS011;64847;45.778;12.802;2024-02-28T10:50:50;1.27;;;1.20;;
76115;SDS011;64847;45.778;12.802;2024-02-28T10:53:16;2.30;;;1.20;;
76115;SDS011;64847;45.778;12.802;2024-02-28T10:55:46;1.17;;;1.10;;
76115;SDS011;64847;45.778;12.802;2024-02-28T10:58:13;1.47;;;1.20;;
76115;SDS011;64847;45.778;12.802;2024-02-28T11:00:39;1.40;;;0.97;;
76115;SDS011;64847;45.778;12.802;2024-02-28T11:03:06;1.30;;;1.20;;
76115;SDS011;64847;45.778;12.802;2024-02-28T11:05:39;1.10;;;1.10;;
76115;SDS011;64847;45.778;12.802;2024-02-28T11:08:27;1.30;;;1.30;;
76115;SDS011;64847;45.778;12.802;2024-02-28T11:11:02;0.87;;;0.87;;
76115;SDS011;64847;45.778;12.802;2024-02-28T11:13:31;1.20;;;1.20;;
76115;SDS011;64847;45.778;12.802;2024-02-28T11:16:06;1.00;;;1.00;;
76115;SDS011;64847;45.778;12.802;2024-02-28T11:18:32;1.50;;;1.40;;
76115;SDS011;64847;45.778;12.802;2024-02-28T11:20:58;1.33;;;1.30;;
76115;SDS011;64847;45.778;12.802;2024-02-28T11:23:23;1.23;;;1.13;;
76115;SDS011;64847;45.778;12.802;2024-02-28T11:25:49;0.93;;;0.93;;
76115;SDS011;64847;45.778;12.802;2024-02-28T11:28:15;0.90;;;0.90;;
76115;SDS011;64847;45.778;12.802;2024-02-28T11:30:40;1.43;;;1.30;;
76115;SDS011;64847;45.778;12.802;2024-02-28T11:33:06;1.20;;;1.10;;
76115;SDS011;64847;45.778;12.802;2024-02-28T11:35:34;1.20;;;1.10;;
76115;SDS011;64847;45.778;12.802;2024-02-28T11:38:00;1.10;;;1.10;;
76115;SDS011;64847;45.778;12.802;2024-02-28T11:40:25;1.00;;;1.00;;
76115;SDS011;64847;45.778;12.802;2024-02-28T11:42:52;0.83;;;0.83;;
76115;SDS011;64847;45.778;12.802;2024-02-28T11:45:17;1.23;;;1.17;;
76115;SDS011;64847;45.778;12.802;2024-02-28T11:47:44;1.20;;;1.10;;
76115;SDS011;64847;45.778;12.802;2024-02-28T11:50:09;1.15;;;1.00;;
76115;SDS011;64847;45.778;12.802;2024-02-28T11:52:35;0.90;;;0.90;;
76115;SDS011;64847;45.778;12.802;2024-02-28T11:55:01;1.40;;;1.00;;
76115;SDS011;64847;45.778;12.802;2024-02-28T11:57:27;1.00;;;1.00;;
76115;SDS011;64847;45.778;12.802;2024-02-28T11:59:54;1.20;;;1.10;;
76115;SDS011;64847;45.778;12.802;2024-02-28T12:02:19;0.80;;;0.80;;
76115;SDS011;64847;45.778;12.802;2024-02-28T12:04:50;0.95;;;0.95;;
76115;SDS011;64847;45.778;12.802;2024-02-28T12:07:16;0.98;;;0.98;;
76115;SDS011;64847;45.778;12.802;2024-02-28T12:09:41;1.00;;;1.00;;
76115;SDS011;64847;45.778;12.802;2024-02-28T12:12:09;1.17;;;1.00;;
76115;SDS011;64847;45.778;12.802;2024-02-28T12:14:37;1.95;;;1.52;;
76115;SDS011;64847;45.778;12.802;2024-02-28T12:17:08;4.05;;;1.63;;
76115;SDS011;64847;45.778;12.802;2024-02-28T12:19:34;1.70;;;1.60;;
76115;SDS011;64847;45.778;12.802;2024-02-28T12:21:59;2.50;;;1.52;;
76115;SDS011;64847;45.778;12.802;2024-02-28T12:24:25;1.35;;;1.27;;
76115;SDS011;64847;45.778;12.802;2024-02-28T12:26:50;1.05;;;1.05;;
76115;SDS011;64847;45.778;12.802;2024-02-28T12:29:16;1.23;;;0.90;;
76115;SDS011;64847;45.778;12.802;2024-02-28T12:31:41;1.20;;;1.10;;
76115;SDS011;64847;45.778;12.802;2024-02-28T12:34:07;0.90;;;0.90;;
76115;SDS011;64847;45.778;12.802;2024-02-28T12:36:32;1.00;;;1.00;;
76115;SDS011;64847;45.778;12.802;2024-02-28T12:38:59;1.13;;;1.00;;
76115;SDS011;64847;45.778;12.802;2024-02-28T12:41:25;0.88;;;0.88;;
76115;SDS011;64847;45.778;12.802;2024-02-28T12:43:51;0.80;;;0.80;;
76115;SDS011;64847;45.778;12.802;2024-02-28T12:46:16;1.02;;;1.00;;
76115;SDS011;64847;45.778;12.802;2024-02-28T12:48:42;1.05;;;1.05;;
76115;SDS011;64847;45.778;12.802;2024-02-28T12:51:11;0.82;;;0.80;;
76115;SDS011;64847;45.778;12.802;2024-02-28T12:53:38;1.02;;;1.00;;
76115;SDS011;64847;45.778;12.802;2024-02-28T12:56:04;0.95;;;0.90;;
76115;SDS011;64847;45.778;12.802;2024-02-28T12:58:29;0.60;;;0.60;;
76115;SDS011;64847;45.778;12.802;2024-02-28T13:00:54;0.73;;;0.73;;
76115;SDS011;64847;45.778;12.802;2024-02-28T13:03:20;0.93;;;0.70;;
76115;SDS011;64847;45.778;12.802;2024-02-28T13:05:45;0.70;;;0.70;;
76115;SDS011;64847;45.778;12.802;2024-02-28T13:08:11;0.97;;;0.97;;
76115;SDS011;64847;45.778;12.802;2024-02-28T13:10:36;0.77;;;0.77;;
76115;SDS011;64847;45.778;12.802;2024-02-28T13:13:06;0.70;;;0.70;;
76115;SDS011;64847;45.778;12.802;2024-02-28T13:15:32;1.23;;;0.80;;
76115;SDS011;64847;45.778;12.802;2024-02-28T13:17:58;0.77;;;0.77;;
76115;SDS011;64847;45.778;12.802;2024-02-28T13:20:23;1.43;;;1.20;;
76115;SDS011;64847;45.778;12.802;2024-02-28T13:22:49;0.80;;;0.80;;
76115;SDS011;64847;45.778;12.802;2024-02-28T13:25:15;0.57;;;0.57;;
76115;SDS011;64847;45.778;12.802;2024-02-28T13:27:43;0.63;;;0.63;;
76115;SDS011;64847;45.778;12.802;2024-02-28T13:30:08;0.60;;;0.60;;
76115;SDS011;64847;45.778;12.802;2024-02-28T13:32:34;0.90;;;0.90;;
76115;SDS011;64847;45.778;12.802;2024-02-28T13:34:59;0.70;;;0.70;;
76115;SDS011;64847;45.778;12.802;2024-02-28T13:37:25;1.03;;;0.90;;
76115;SDS011;64847;45.778;12.802;2024-02-28T13:39:50;1.00;;;0.90;;
76115;SDS011;64847;45.778;12.802;2024-02-28T13:42:19;1.00;;;0.90;;
76115;SDS011;64847;45.778;12.802;2024-02-28T13:44:49;0.80;;;0.80;;
76115;SDS011;64847;45.778;12.802;2024-02-28T13:47:14;0.80;;;0.80;;
76115;SDS011;64847;45.778;12.802;2024-02-28T13:49:40;1.03;;;0.93;;
76115;SDS011;64847;45.778;12.802;2024-02-28T13:52:05;1.43;;;0.90;;
76115;SDS011;64847;45.778;12.802;2024-02-28T13:54:31;1.33;;;1.00;;
76115;SDS011;64847;45.778;12.802;2024-02-28T13:56:57;1.30;;;1.20;;
76115;SDS011;64847;45.778;12.802;2024-02-28T13:59:23;1.10;;;1.00;;
76115;SDS011;64847;45.778;12.802;2024-02-28T14:01:48;1.10;;;1.10;;
76115;SDS011;64847;45.778;12.802;2024-02-28T14:04:14;1.80;;;1.40;;
76115;SDS011;64847;45.778;12.802;2024-02-28T14:06:39;1.03;;;1.00;;
76115;SDS011;64847;45.778;12.802;2024-02-28T14:09:05;1.00;;;1.00;;
76115;SDS011;64847;45.778;12.802;2024-02-28T14:11:30;1.00;;;1.00;;
76115;SDS011;64847;45.778;12.802;2024-02-28T14:13:56;1.00;;;1.00;;
76115;SDS011;64847;45.778;12.802;2024-02-28T14:16:21;1.17;;;1.00;;
76115;SDS011;64847;45.778;12.802;2024-02-28T14:18:47;1.50;;;1.13;;
76115;SDS011;64847;45.778;12.802;2024-02-28T14:21:12;1.30;;;1.20;;
76115;SDS011;64847;45.778;12.802;2024-02-28T14:23:38;1.10;;;1.00;;
76115;SDS011;64847;45.778;12.802;2024-02-28T14:26:04;1.33;;;0.90;;
76115;SDS011;64847;45.778;12.802;2024-02-28T14:28:29;1.23;;;1.23;;